sensor_id;sensor_type;location;lat;lon;timestamp;temperature;humidity
24152;DHT22;12311;50.866;4.332;2022-11-14T00:00:12;8.30;99.90
24152;DHT22;12311;50.866;4.332;2022-11-14T00:02:38;8.20;99.90
24152;DHT22;12311;50.866;4.332;2022-11-14T00:05:05;8.20;99.90
24152;DHT22;12311;50.866;4.332;2022-11-14T00:07:33;8.30;99.90
24152;DHT22;12311;50.866;4.332;2022-11-14T00:09:59;8.30;99.90
24152;DHT22;12311;50.866;4.332;2022-11-14T00:12:25;8.30;99.90
24152;DHT22;12311;50.866;4.332;2022-11-14T00:14:50;8.20;99.90
24152;DHT22;12311;50.866;4.332;2022-11-14T00:17:16;8.10;99.90
24152;DHT22;12311;50.866;4.332;2022-11-14T00:19:42;8.20;99.90
24152;DHT22;12311;50.866;4.332;2022-11-14T00:22:08;8.30;99.90
24152;DHT22;12311;50.866;4.332;2022-11-14T00:24:33;8.30;99.90
24152;DHT22;12311;50.866;4.332;2022-11-14T00:26:59;8.40;99.90
24152;DHT22;12311;50.866;4.332;2022-11-14T00:29:25;8.30;99.90
24152;DHT22;12311;50.866;4.332;2022-11-14T00:31:50;8.30;99.90
24152;DHT22;12311;50.866;4.332;2022-11-14T00:34:16;8.20;99.90
24152;DHT22;12311;50.866;4.332;2022-11-14T00:36:42;8.20;99.90
24152;DHT22;12311;50.866;4.332;2022-11-14T00:39:12;8.20;99.90
24152;DHT22;12311;50.866;4.332;2022-11-14T00:41:41;8.20;99.90
24152;DHT22;12311;50.866;4.332;2022-11-14T00:44:07;8.10;99.90
24152;DHT22;12311;50.866;4.332;2022-11-14T00:46:33;8.20;99.90
24152;DHT22;12311;50.866;4.332;2022-11-14T00:48:59;8.20;99.90
24152;DHT22;12311;50.866;4.332;2022-11-14T00:51:25;8.10;99.90
24152;DHT22;12311;50.866;4.332;2022-11-14T00:53:50;8.10;99.90
24152;DHT22;12311;50.866;4.332;2022-11-14T00:56:16;8.10;99.90
24152;DHT22;12311;50.866;4.332;2022-11-14T00:58:42;8.30;99.90
24152;DHT22;12311;50.866;4.332;2022-11-14T01:01:07;8.20;99.90
24152;DHT22;12311;50.866;4.332;2022-11-14T01:03:33;8.20;99.90
24152;DHT22;12311;50.866;4.332;2022-11-14T01:06:06;8.10;99.90
24152;DHT22;12311;50.866;4.332;2022-11-14T01:08:32;8.20;99.90
24152;DHT22;12311;50.866;4.332;2022-11-14T01:10:58;8.20;99.90
24152;DHT22;12311;50.866;4.332;2022-11-14T01:13:25;8.10;99.90
24152;DHT22;12311;50.866;4.332;2022-11-14T01:15:51;8.10;99.90
24152;DHT22;12311;50.866;4.332;2022-11-14T01:18:20;8.10;99.90
24152;DHT22;12311;50.866;4.332;2022-11-14T01:20:47;8.10;99.90
24152;DHT22;12311;50.866;4.332;2022-11-14T01:23:14;7.90;99.90
24152;DHT22;12311;50.866;4.332;2022-11-14T01:25:41;7.90;99.90
24152;DHT22;12311;50.866;4.332;2022-11-14T01:28:17;7.90;99.90
24152;DHT22;12311;50.866;4.332;2022-11-14T01:30:43;7.90;99.90
24152;DHT22;12311;50.866;4.332;2022-11-14T01:33:09;7.90;99.90
24152;DHT22;12311;50.866;4.332;2022-11-14T01:35:36;7.90;99.90
24152;DHT22;12311;50.866;4.332;2022-11-14T01:38:03;7.90;99.90
24152;DHT22;12311;50.866;4.332;2022-11-14T01:40:28;7.90;99.90
24152;DHT22;12311;50.866;4.332;2022-11-14T01:45:57;7.90;99.90
24152;DHT22;12311;50.866;4.332;2022-11-14T01:48:31;7.90;99.90
24152;DHT22;12311;50.866;4.332;2022-11-14T01:53:42;7.80;99.90
24152;DHT22;12311;50.866;4.332;2022-11-14T01:56:11;7.80;99.90
24152;DHT22;12311;50.866;4.332;2022-11-14T01:58:41;7.80;99.90
24152;DHT22;12311;50.866;4.332;2022-11-14T02:01:08;7.70;99.90
24152;DHT22;12311;50.866;4.332;2022-11-14T02:03:37;7.70;99.90
24152;DHT22;12311;50.866;4.332;2022-11-14T02:06:05;7.60;99.90
24152;DHT22;12311;50.866;4.332;2022-11-14T02:08:32;7.60;99.90
24152;DHT22;12311;50.866;4.332;2022-11-14T02:10:58;7.60;99.90
24152;DHT22;12311;50.866;4.332;2022-11-14T02:13:24;7.60;99.90
24152;DHT22;12311;50.866;4.332;2022-11-14T02:15:50;7.60;99.90
24152;DHT22;12311;50.866;4.332;2022-11-14T02:18:16;7.70;99.90
24152;DHT22;12311;50.866;4.332;2022-11-14T02:20:42;7.60;99.90
24152;DHT22;12311;50.866;4.332;2022-11-14T02:23:11;7.70;99.90
24152;DHT22;12311;50.866;4.332;2022-11-14T02:25:38;7.70;99.90
24152;DHT22;12311;50.866;4.332;2022-11-14T02:28:06;7.60;99.90
24152;DHT22;12311;50.866;4.332;2022-11-14T02:30:32;7.70;99.90
24152;DHT22;12311;50.866;4.332;2022-11-14T02:32:58;7.60;99.90
24152;DHT22;12311;50.866;4.332;2022-11-14T02:35:24;7.60;99.90
24152;DHT22;12311;50.866;4.332;2022-11-14T02:37:49;7.50;99.90
24152;DHT22;12311;50.866;4.332;2022-11-14T02:40:15;7.50;99.90
24152;DHT22;12311;50.866;4.332;2022-11-14T02:42:41;7.50;99.90
24152;DHT22;12311;50.866;4.332;2022-11-14T02:45:07;7.40;99.90
24152;DHT22;12311;50.866;4.332;2022-11-14T02:47:33;7.50;99.90
24152;DHT22;12311;50.866;4.332;2022-11-14T02:49:59;7.40;99.90
24152;DHT22;12311;50.866;4.332;2022-11-14T02:52:24;7.40;99.90
24152;DHT22;12311;50.866;4.332;2022-11-14T02:54:50;7.40;99.90
24152;DHT22;12311;50.866;4.332;2022-11-14T02:57:16;7.30;99.90
24152;DHT22;12311;50.866;4.332;2022-11-14T02:59:41;7.40;99.90
24152;DHT22;12311;50.866;4.332;2022-11-14T03:02:07;7.30;99.90
24152;DHT22;12311;50.866;4.332;2022-11-14T03:04:32;7.30;99.90
24152;DHT22;12311;50.866;4.332;2022-11-14T03:06:58;7.20;99.90
24152;DHT22;12311;50.866;4.332;2022-11-14T03:09:24;7.20;99.90
24152;DHT22;12311;50.866;4.332;2022-11-14T03:11:49;7.20;99.90
24152;DHT22;12311;50.866;4.332;2022-11-14T03:14:15;7.20;99.90
24152;DHT22;12311;50.866;4.332;2022-11-14T03:16:40;7.10;99.90
24152;DHT22;12311;50.866;4.332;2022-11-14T03:19:06;7.10;99.90
24152;DHT22;12311;50.866;4.332;2022-11-14T03:21:32;7.10;99.90
24152;DHT22;12311;50.866;4.332;2022-11-14T03:23:57;7.10;99.90
24152;DHT22;12311;50.866;4.332;2022-11-14T03:26:23;7.10;99.90
24152;DHT22;12311;50.866;4.332;2022-11-14T03:28:49;7.00;99.90
24152;DHT22;12311;50.866;4.332;2022-11-14T03:31:14;7.10;99.90
24152;DHT22;12311;50.866;4.332;2022-11-14T03:33:40;7.10;99.90
24152;DHT22;12311;50.866;4.332;2022-11-14T03:36:06;7.10;99.90
24152;DHT22;12311;50.866;4.332;2022-11-14T03:38:34;7.10;99.90
24152;DHT22;12311;50.866;4.332;2022-11-14T03:41:00;7.10;99.90
24152;DHT22;12311;50.866;4.332;2022-11-14T03:43:29;7.00;99.90
24152;DHT22;12311;50.866;4.332;2022-11-14T03:46:00;7.00;99.90
24152;DHT22;12311;50.866;4.332;2022-11-14T03:48:27;6.90;99.90
24152;DHT22;12311;50.866;4.332;2022-11-14T03:50:53;6.90;99.90
24152;DHT22;12311;50.866;4.332;2022-11-14T03:53:19;6.90;99.90
24152;DHT22;12311;50.866;4.332;2022-11-14T03:55:45;6.80;99.90
24152;DHT22;12311;50.866;4.332;2022-11-14T03:58:11;6.90;99.90
24152;DHT22;12311;50.866;4.332;2022-11-14T04:00:36;6.80;99.90
24152;DHT22;12311;50.866;4.332;2022-11-14T04:03:02;6.80;99.90
24152;DHT22;12311;50.866;4.332;2022-11-14T04:05:28;6.80;99.90
24152;DHT22;12311;50.866;4.332;2022-11-14T04:07:53;6.80;99.90
24152;DHT22;12311;50.866;4.332;2022-11-14T04:10:19;6.80;99.90
24152;DHT22;12311;50.866;4.332;2022-11-14T04:12:49;6.70;99.90
24152;DHT22;12311;50.866;4.332;2022-11-14T04:15:16;6.60;99.90
24152;DHT22;12311;50.866;4.332;2022-11-14T04:17:42;6.60;99.90
24152;DHT22;12311;50.866;4.332;2022-11-14T04:20:08;6.70;99.90
24152;DHT22;12311;50.866;4.332;2022-11-14T04:22:33;6.70;99.90
24152;DHT22;12311;50.866;4.332;2022-11-14T04:24:59;6.80;99.90
24152;DHT22;12311;50.866;4.332;2022-11-14T04:27:25;6.70;99.90
24152;DHT22;12311;50.866;4.332;2022-11-14T04:29:50;6.60;99.90
24152;DHT22;12311;50.866;4.332;2022-11-14T04:32:16;6.50;99.90
24152;DHT22;12311;50.866;4.332;2022-11-14T04:34:41;6.40;99.90
24152;DHT22;12311;50.866;4.332;2022-11-14T04:37:07;6.40;99.90
24152;DHT22;12311;50.866;4.332;2022-11-14T04:39:33;6.40;99.90
24152;DHT22;12311;50.866;4.332;2022-11-14T04:41:58;6.40;99.90
24152;DHT22;12311;50.866;4.332;2022-11-14T04:44:24;6.40;99.90
24152;DHT22;12311;50.866;4.332;2022-11-14T04:46:49;6.40;99.90
24152;DHT22;12311;50.866;4.332;2022-11-14T04:49:15;6.40;99.90
24152;DHT22;12311;50.866;4.332;2022-11-14T04:51:41;6.50;99.90
24152;DHT22;12311;50.866;4.332;2022-11-14T04:54:06;6.50;99.90
24152;DHT22;12311;50.866;4.332;2022-11-14T04:56:32;6.40;99.90
24152;DHT22;12311;50.866;4.332;2022-11-14T04:58:58;6.40;99.90
24152;DHT22;12311;50.866;4.332;2022-11-14T05:01:23;6.30;99.90
24152;DHT22;12311;50.866;4.332;2022-11-14T05:03:49;6.30;99.90
24152;DHT22;12311;50.866;4.332;2022-11-14T05:06:15;6.30;99.90
24152;DHT22;12311;50.866;4.332;2022-11-14T05:08:40;6.30;99.90
24152;DHT22;12311;50.866;4.332;2022-11-14T05:11:06;6.30;99.90
24152;DHT22;12311;50.866;4.332;2022-11-14T05:13:32;6.40;99.90
24152;DHT22;12311;50.866;4.332;2022-11-14T05:15:58;6.40;99.90
24152;DHT22;12311;50.866;4.332;2022-11-14T05:18:24;6.30;99.90
24152;DHT22;12311;50.866;4.332;2022-11-14T05:20:50;6.40;99.90
24152;DHT22;12311;50.866;4.332;2022-11-14T05:23:21;6.40;99.90
24152;DHT22;12311;50.866;4.332;2022-11-14T05:25:57;6.40;99.90
24152;DHT22;12311;50.866;4.332;2022-11-14T05:28:22;6.40;99.90
24152;DHT22;12311;50.866;4.332;2022-11-14T05:30:48;6.30;99.90
24152;DHT22;12311;50.866;4.332;2022-11-14T05:33:13;6.30;99.90
24152;DHT22;12311;50.866;4.332;2022-11-14T05:35:39;6.20;99.90
24152;DHT22;12311;50.866;4.332;2022-11-14T05:38:05;6.30;99.90
24152;DHT22;12311;50.866;4.332;2022-11-14T05:40:30;6.30;99.90
24152;DHT22;12311;50.866;4.332;2022-11-14T05:42:56;6.30;99.90
24152;DHT22;12311;50.866;4.332;2022-11-14T05:45:22;6.30;99.90
24152;DHT22;12311;50.866;4.332;2022-11-14T05:47:47;6.20;99.90
24152;DHT22;12311;50.866;4.332;2022-11-14T05:50:13;6.20;99.90
24152;DHT22;12311;50.866;4.332;2022-11-14T05:52:40;6.20;99.90
24152;DHT22;12311;50.866;4.332;2022-11-14T05:55:06;6.20;99.90
24152;DHT22;12311;50.866;4.332;2022-11-14T05:57:32;6.10;99.90
24152;DHT22;12311;50.866;4.332;2022-11-14T05:59:57;6.10;99.90
24152;DHT22;12311;50.866;4.332;2022-11-14T06:02:24;6.00;99.90
24152;DHT22;12311;50.866;4.332;2022-11-14T06:04:49;6.00;99.90
24152;DHT22;12311;50.866;4.332;2022-11-14T06:07:15;6.00;99.90
24152;DHT22;12311;50.866;4.332;2022-11-14T06:09:40;6.00;99.90
24152;DHT22;12311;50.866;4.332;2022-11-14T06:12:06;5.90;99.90
24152;DHT22;12311;50.866;4.332;2022-11-14T06:14:32;6.00;99.90
24152;DHT22;12311;50.866;4.332;2022-11-14T06:16:58;5.90;99.90
24152;DHT22;12311;50.866;4.332;2022-11-14T06:19:24;5.90;99.90
24152;DHT22;12311;50.866;4.332;2022-11-14T06:21:49;5.90;99.90
24152;DHT22;12311;50.866;4.332;2022-11-14T06:24:15;5.90;99.90
24152;DHT22;12311;50.866;4.332;2022-11-14T06:26:40;5.90;99.90
24152;DHT22;12311;50.866;4.332;2022-11-14T06:29:06;5.80;99.90
24152;DHT22;12311;50.866;4.332;2022-11-14T06:31:32;5.90;99.90
24152;DHT22;12311;50.866;4.332;2022-11-14T06:33:58;5.90;99.90
24152;DHT22;12311;50.866;4.332;2022-11-14T06:36:23;6.00;99.90
24152;DHT22;12311;50.866;4.332;2022-11-14T06:38:49;6.00;99.90
24152;DHT22;12311;50.866;4.332;2022-11-14T06:41:17;6.00;99.90
24152;DHT22;12311;50.866;4.332;2022-11-14T06:43:45;6.00;99.90
24152;DHT22;12311;50.866;4.332;2022-11-14T06:46:14;6.10;99.90
24152;DHT22;12311;50.866;4.332;2022-11-14T06:48:41;6.10;99.90
24152;DHT22;12311;50.866;4.332;2022-11-14T06:51:09;6.10;99.90
24152;DHT22;12311;50.866;4.332;2022-11-14T06:53:35;6.10;99.90
24152;DHT22;12311;50.866;4.332;2022-11-14T06:56:06;6.10;99.90
24152;DHT22;12311;50.866;4.332;2022-11-14T06:58:34;6.00;99.90
24152;DHT22;12311;50.866;4.332;2022-11-14T07:01:12;6.00;99.90
24152;DHT22;12311;50.866;4.332;2022-11-14T07:03:38;6.00;99.90
24152;DHT22;12311;50.866;4.332;2022-11-14T07:06:05;5.90;99.90
24152;DHT22;12311;50.866;4.332;2022-11-14T07:08:31;5.90;99.90
24152;DHT22;12311;50.866;4.332;2022-11-14T07:11:11;5.90;99.90
24152;DHT22;12311;50.866;4.332;2022-11-14T07:13:47;5.90;99.90
24152;DHT22;12311;50.866;4.332;2022-11-14T07:16:13;5.90;99.90
24152;DHT22;12311;50.866;4.332;2022-11-14T07:18:38;5.90;99.90
24152;DHT22;12311;50.866;4.332;2022-11-14T07:21:05;6.00;99.90
24152;DHT22;12311;50.866;4.332;2022-11-14T07:23:32;6.00;99.90
24152;DHT22;12311;50.866;4.332;2022-11-14T07:26:02;6.00;99.90
24152;DHT22;12311;50.866;4.332;2022-11-14T07:28:32;6.00;99.90
24152;DHT22;12311;50.866;4.332;2022-11-14T07:30:58;6.00;99.90
24152;DHT22;12311;50.866;4.332;2022-11-14T07:33:24;6.10;99.90
24152;DHT22;12311;50.866;4.332;2022-11-14T07:35:50;6.10;99.90
24152;DHT22;12311;50.866;4.332;2022-11-14T07:38:16;6.20;99.90
24152;DHT22;12311;50.866;4.332;2022-11-14T07:40:41;6.20;99.90
24152;DHT22;12311;50.866;4.332;2022-11-14T07:43:07;6.30;99.90
24152;DHT22;12311;50.866;4.332;2022-11-14T07:45:32;6.40;99.90
24152;DHT22;12311;50.866;4.332;2022-11-14T07:48:00;6.50;99.90
24152;DHT22;12311;50.866;4.332;2022-11-14T07:50:27;6.50;99.90
24152;DHT22;12311;50.866;4.332;2022-11-14T07:52:54;6.50;99.90
24152;DHT22;12311;50.866;4.332;2022-11-14T07:55:20;6.50;99.90
24152;DHT22;12311;50.866;4.332;2022-11-14T07:57:46;6.60;99.90
24152;DHT22;12311;50.866;4.332;2022-11-14T08:00:13;6.60;99.90
24152;DHT22;12311;50.866;4.332;2022-11-14T08:02:39;6.70;99.90
24152;DHT22;12311;50.866;4.332;2022-11-14T08:05:05;6.70;99.90
24152;DHT22;12311;50.866;4.332;2022-11-14T08:07:31;6.80;99.90
24152;DHT22;12311;50.866;4.332;2022-11-14T08:09:56;6.80;99.90
24152;DHT22;12311;50.866;4.332;2022-11-14T08:12:22;6.90;99.90
24152;DHT22;12311;50.866;4.332;2022-11-14T08:14:48;6.90;99.90
24152;DHT22;12311;50.866;4.332;2022-11-14T08:17:13;6.90;99.90
24152;DHT22;12311;50.866;4.332;2022-11-14T08:19:39;6.90;99.90
24152;DHT22;12311;50.866;4.332;2022-11-14T08:22:06;6.90;99.90
24152;DHT22;12311;50.866;4.332;2022-11-14T08:24:32;6.90;99.90
24152;DHT22;12311;50.866;4.332;2022-11-14T08:26:58;7.00;99.90
24152;DHT22;12311;50.866;4.332;2022-11-14T08:29:23;7.10;99.90
24152;DHT22;12311;50.866;4.332;2022-11-14T08:31:49;7.10;99.90
24152;DHT22;12311;50.866;4.332;2022-11-14T08:34:15;7.20;99.90
24152;DHT22;12311;50.866;4.332;2022-11-14T08:36:40;7.20;99.90
24152;DHT22;12311;50.866;4.332;2022-11-14T08:39:06;7.20;99.90
24152;DHT22;12311;50.866;4.332;2022-11-14T08:41:32;7.30;99.90
24152;DHT22;12311;50.866;4.332;2022-11-14T08:43:57;7.30;99.90
24152;DHT22;12311;50.866;4.332;2022-11-14T08:46:23;7.40;99.90
24152;DHT22;12311;50.866;4.332;2022-11-14T08:48:48;7.40;99.90
24152;DHT22;12311;50.866;4.332;2022-11-14T08:51:14;7.40;99.90
24152;DHT22;12311;50.866;4.332;2022-11-14T08:53:40;7.50;99.90
24152;DHT22;12311;50.866;4.332;2022-11-14T08:56:06;7.50;99.90
24152;DHT22;12311;50.866;4.332;2022-11-14T08:58:32;7.50;99.90
24152;DHT22;12311;50.866;4.332;2022-11-14T09:01:00;7.60;99.90
24152;DHT22;12311;50.866;4.332;2022-11-14T09:03:25;7.50;99.90
24152;DHT22;12311;50.866;4.332;2022-11-14T09:05:51;7.70;99.90
24152;DHT22;12311;50.866;4.332;2022-11-14T09:08:17;7.70;99.90
24152;DHT22;12311;50.866;4.332;2022-11-14T09:10:43;7.80;99.90
24152;DHT22;12311;50.866;4.332;2022-11-14T09:13:09;7.80;99.90
24152;DHT22;12311;50.866;4.332;2022-11-14T09:15:35;7.80;99.90
24152;DHT22;12311;50.866;4.332;2022-11-14T09:18:00;7.90;99.90
24152;DHT22;12311;50.866;4.332;2022-11-14T09:20:26;7.90;99.90
24152;DHT22;12311;50.866;4.332;2022-11-14T09:22:57;7.90;99.90
24152;DHT22;12311;50.866;4.332;2022-11-14T09:25:23;8.20;99.90
24152;DHT22;12311;50.866;4.332;2022-11-14T09:27:51;8.30;99.90
24152;DHT22;12311;50.866;4.332;2022-11-14T09:30:16;8.50;99.90
24152;DHT22;12311;50.866;4.332;2022-11-14T09:32:42;8.60;99.90
24152;DHT22;12311;50.866;4.332;2022-11-14T09:35:08;8.70;99.90
24152;DHT22;12311;50.866;4.332;2022-11-14T09:37:33;8.70;99.90
24152;DHT22;12311;50.866;4.332;2022-11-14T09:39:59;8.80;99.90
24152;DHT22;12311;50.866;4.332;2022-11-14T09:42:33;8.80;99.90
24152;DHT22;12311;50.866;4.332;2022-11-14T09:45:03;8.80;99.90
24152;DHT22;12311;50.866;4.332;2022-11-14T09:47:43;8.80;99.90
24152;DHT22;12311;50.866;4.332;2022-11-14T09:50:13;9.00;99.90
24152;DHT22;12311;50.866;4.332;2022-11-14T09:55:42;9.00;99.90
24152;DHT22;12311;50.866;4.332;2022-11-14T09:58:14;9.10;99.90
24152;DHT22;12311;50.866;4.332;2022-11-14T10:00:49;9.10;99.90
24152;DHT22;12311;50.866;4.332;2022-11-14T10:03:26;9.00;99.90
24152;DHT22;12311;50.866;4.332;2022-11-14T10:06:03;9.30;99.90
24152;DHT22;12311;50.866;4.332;2022-11-14T10:08:56;9.30;99.90
24152;DHT22;12311;50.866;4.332;2022-11-14T10:11:47;9.50;99.90
24152;DHT22;12311;50.866;4.332;2022-11-14T10:14:38;9.70;99.90
24152;DHT22;12311;50.866;4.332;2022-11-14T10:28:31;11.10;99.90
24152;DHT22;12311;50.866;4.332;2022-11-14T10:31:13;11.10;99.90
24152;DHT22;12311;50.866;4.332;2022-11-14T10:33:45;11.10;99.90
24152;DHT22;12311;50.866;4.332;2022-11-14T10:36:23;11.10;99.90
24152;DHT22;12311;50.866;4.332;2022-11-14T10:39:14;10.90;99.90
24152;DHT22;12311;50.866;4.332;2022-11-14T10:41:43;10.70;99.90
24152;DHT22;12311;50.866;4.332;2022-11-14T10:44:15;10.50;99.90
24152;DHT22;12311;50.866;4.332;2022-11-14T10:46:49;10.40;99.90
24152;DHT22;12311;50.866;4.332;2022-11-14T10:49:19;10.40;99.90
24152;DHT22;12311;50.866;4.332;2022-11-14T10:51:53;10.30;99.90
24152;DHT22;12311;50.866;4.332;2022-11-14T10:57:02;10.30;99.90
24152;DHT22;12311;50.866;4.332;2022-11-14T10:59:27;10.20;99.90
24152;DHT22;12311;50.866;4.332;2022-11-14T11:01:55;10.20;99.90
24152;DHT22;12311;50.866;4.332;2022-11-14T11:04:34;10.40;99.90
24152;DHT22;12311;50.866;4.332;2022-11-14T11:09:38;10.30;99.90
24152;DHT22;12311;50.866;4.332;2022-11-14T11:12:43;10.40;99.90
24152;DHT22;12311;50.866;4.332;2022-11-14T11:18:13;11.00;99.90
24152;DHT22;12311;50.866;4.332;2022-11-14T11:21:12;10.70;99.90
24152;DHT22;12311;50.866;4.332;2022-11-14T11:23:53;10.40;99.90
24152;DHT22;12311;50.866;4.332;2022-11-14T11:31:59;9.80;99.90
24152;DHT22;12311;50.866;4.332;2022-11-14T11:34:26;9.80;99.90
24152;DHT22;12311;50.866;4.332;2022-11-14T11:37:08;9.60;99.90
24152;DHT22;12311;50.866;4.332;2022-11-14T11:39:44;9.40;99.90
24152;DHT22;12311;50.866;4.332;2022-11-14T11:42:16;9.40;99.90
24152;DHT22;12311;50.866;4.332;2022-11-14T11:44:45;9.10;99.90
24152;DHT22;12311;50.866;4.332;2022-11-14T11:47:15;9.00;99.90
24152;DHT22;12311;50.866;4.332;2022-11-14T11:49:47;9.00;99.90
24152;DHT22;12311;50.866;4.332;2022-11-14T11:52:22;9.00;99.90
24152;DHT22;12311;50.866;4.332;2022-11-14T11:57:38;9.00;99.90
24152;DHT22;12311;50.866;4.332;2022-11-14T12:00:14;9.00;99.90
24152;DHT22;12311;50.866;4.332;2022-11-14T12:02:41;9.00;99.90
24152;DHT22;12311;50.866;4.332;2022-11-14T12:10:37;8.80;99.90
24152;DHT22;12311;50.866;4.332;2022-11-14T12:19:45;8.90;99.90
24152;DHT22;12311;50.866;4.332;2022-11-14T12:21:59;9.00;99.90
24152;DHT22;12311;50.866;4.332;2022-11-14T12:30:22;8.00;99.90
24152;DHT22;12311;50.866;4.332;2022-11-14T12:32:52;8.10;99.90
24152;DHT22;12311;50.866;4.332;2022-11-14T12:37:49;7.70;99.90
24152;DHT22;12311;50.866;4.332;2022-11-14T12:40:31;7.80;99.90
24152;DHT22;12311;50.866;4.332;2022-11-14T12:42:58;7.70;99.90
24152;DHT22;12311;50.866;4.332;2022-11-14T12:50:47;7.30;99.90
24152;DHT22;12311;50.866;4.332;2022-11-14T12:56:35;7.20;99.90
24152;DHT22;12311;50.866;4.332;2022-11-14T12:59:27;7.30;99.90
24152;DHT22;12311;50.866;4.332;2022-11-14T13:02:51;7.30;99.90
24152;DHT22;12311;50.866;4.332;2022-11-14T13:07:53;7.20;99.90
24152;DHT22;12311;50.866;4.332;2022-11-14T13:13:09;7.10;99.90
24152;DHT22;12311;50.866;4.332;2022-11-14T13:15:54;7.00;99.90
24152;DHT22;12311;50.866;4.332;2022-11-14T13:18:51;7.20;99.90
24152;DHT22;12311;50.866;4.332;2022-11-14T13:21:36;7.10;99.90
24152;DHT22;12311;50.866;4.332;2022-11-14T13:24:17;7.10;99.90
24152;DHT22;12311;50.866;4.332;2022-11-14T13:26:48;7.20;99.90
24152;DHT22;12311;50.866;4.332;2022-11-14T13:32:12;7.20;99.90
24152;DHT22;12311;50.866;4.332;2022-11-14T13:35:03;7.20;99.90
24152;DHT22;12311;50.866;4.332;2022-11-14T13:40:11;7.20;99.90
24152;DHT22;12311;50.866;4.332;2022-11-14T13:46:17;7.30;99.90
24152;DHT22;12311;50.866;4.332;2022-11-14T13:51:28;7.40;99.90
24152;DHT22;12311;50.866;4.332;2022-11-14T13:53:54;7.30;99.90
24152;DHT22;12311;50.866;4.332;2022-11-14T13:59:43;7.10;99.90
24152;DHT22;12311;50.866;4.332;2022-11-14T14:02:33;7.20;99.90
24152;DHT22;12311;50.866;4.332;2022-11-14T14:13:17;7.30;99.90
24152;DHT22;12311;50.866;4.332;2022-11-14T14:16:06;7.50;99.90
24152;DHT22;12311;50.866;4.332;2022-11-14T14:21:43;7.40;99.90
24152;DHT22;12311;50.866;4.332;2022-11-14T14:24:38;7.40;99.90
24152;DHT22;12311;50.866;4.332;2022-11-14T14:30:17;7.30;99.90
24152;DHT22;12311;50.866;4.332;2022-11-14T14:33:00;7.20;99.90
24152;DHT22;12311;50.866;4.332;2022-11-14T14:35:29;7.20;99.90
24152;DHT22;12311;50.866;4.332;2022-11-14T14:37:56;7.20;99.90
24152;DHT22;12311;50.866;4.332;2022-11-14T14:40:32;7.20;99.90
24152;DHT22;12311;50.866;4.332;2022-11-14T14:43:00;7.20;99.90
24152;DHT22;12311;50.866;4.332;2022-11-14T14:45:27;7.20;99.90
24152;DHT22;12311;50.866;4.332;2022-11-14T14:48:05;7.20;99.90
24152;DHT22;12311;50.866;4.332;2022-11-14T14:50:40;7.20;99.90
24152;DHT22;12311;50.866;4.332;2022-11-14T14:53:07;7.20;99.90
24152;DHT22;12311;50.866;4.332;2022-11-14T14:55:57;7.30;99.90
24152;DHT22;12311;50.866;4.332;2022-11-14T15:01:03;7.30;99.90
24152;DHT22;12311;50.866;4.332;2022-11-14T15:03:36;7.30;99.90
24152;DHT22;12311;50.866;4.332;2022-11-14T15:06:27;7.30;99.90
24152;DHT22;12311;50.866;4.332;2022-11-14T15:09:00;7.30;99.90
24152;DHT22;12311;50.866;4.332;2022-11-14T15:11:26;7.30;99.90
24152;DHT22;12311;50.866;4.332;2022-11-14T15:13:55;7.50;99.90
24152;DHT22;12311;50.866;4.332;2022-11-14T15:16:22;7.60;99.90
24152;DHT22;12311;50.866;4.332;2022-11-14T15:18:50;7.60;99.90
24152;DHT22;12311;50.866;4.332;2022-11-14T15:21:25;7.60;99.90
24152;DHT22;12311;50.866;4.332;2022-11-14T15:26:23;7.50;99.90
24152;DHT22;12311;50.866;4.332;2022-11-14T15:28:49;7.50;99.90
24152;DHT22;12311;50.866;4.332;2022-11-14T15:31:19;7.50;99.90
24152;DHT22;12311;50.866;4.332;2022-11-14T15:34:04;7.50;99.90
24152;DHT22;12311;50.866;4.332;2022-11-14T15:36:29;7.50;99.90
24152;DHT22;12311;50.866;4.332;2022-11-14T15:39:00;7.50;99.90
24152;DHT22;12311;50.866;4.332;2022-11-14T15:41:27;7.60;99.90
24152;DHT22;12311;50.866;4.332;2022-11-14T15:43:54;7.60;99.90
24152;DHT22;12311;50.866;4.332;2022-11-14T15:46:37;7.60;99.90
24152;DHT22;12311;50.866;4.332;2022-11-14T15:49:19;7.60;99.90
24152;DHT22;12311;50.866;4.332;2022-11-14T15:52:09;7.60;99.90
24152;DHT22;12311;50.866;4.332;2022-11-14T15:54:40;7.70;99.90
24152;DHT22;12311;50.866;4.332;2022-11-14T15:57:14;7.70;99.90
24152;DHT22;12311;50.866;4.332;2022-11-14T15:59:41;7.70;99.90
24152;DHT22;12311;50.866;4.332;2022-11-14T16:02:40;7.70;99.90
24152;DHT22;12311;50.866;4.332;2022-11-14T16:05:11;7.70;99.90
24152;DHT22;12311;50.866;4.332;2022-11-14T16:07:38;7.60;99.90
24152;DHT22;12311;50.866;4.332;2022-11-14T16:10:16;7.60;99.90
24152;DHT22;12311;50.866;4.332;2022-11-14T16:12:42;7.60;99.90
24152;DHT22;12311;50.866;4.332;2022-11-14T16:15:08;7.70;99.90
24152;DHT22;12311;50.866;4.332;2022-11-14T16:17:39;7.70;99.90
24152;DHT22;12311;50.866;4.332;2022-11-14T16:20:09;7.70;99.90
24152;DHT22;12311;50.866;4.332;2022-11-14T16:22:37;7.70;99.90
24152;DHT22;12311;50.866;4.332;2022-11-14T16:25:02;7.70;99.90
24152;DHT22;12311;50.866;4.332;2022-11-14T16:27:28;7.70;99.90
24152;DHT22;12311;50.866;4.332;2022-11-14T16:29:54;7.60;99.90
24152;DHT22;12311;50.866;4.332;2022-11-14T16:32:20;7.60;99.90
24152;DHT22;12311;50.866;4.332;2022-11-14T16:34:47;7.60;99.90
24152;DHT22;12311;50.866;4.332;2022-11-14T16:37:13;7.70;99.90
24152;DHT22;12311;50.866;4.332;2022-11-14T16:39:39;7.70;99.90
24152;DHT22;12311;50.866;4.332;2022-11-14T16:42:05;7.60;99.90
24152;DHT22;12311;50.866;4.332;2022-11-14T16:44:32;7.60;99.90
24152;DHT22;12311;50.866;4.332;2022-11-14T16:46:57;7.70;99.90
24152;DHT22;12311;50.866;4.332;2022-11-14T16:49:23;7.70;99.90
24152;DHT22;12311;50.866;4.332;2022-11-14T16:51:50;7.80;99.90
24152;DHT22;12311;50.866;4.332;2022-11-14T16:54:17;7.70;99.90
24152;DHT22;12311;50.866;4.332;2022-11-14T16:56:43;7.70;99.90
24152;DHT22;12311;50.866;4.332;2022-11-14T16:59:09;7.60;99.90
24152;DHT22;12311;50.866;4.332;2022-11-14T17:01:36;7.60;99.90
24152;DHT22;12311;50.866;4.332;2022-11-14T17:04:02;7.50;99.90
24152;DHT22;12311;50.866;4.332;2022-11-14T17:06:28;7.60;99.90
24152;DHT22;12311;50.866;4.332;2022-11-14T17:08:54;7.60;99.90
24152;DHT22;12311;50.866;4.332;2022-11-14T17:11:20;7.60;99.90
24152;DHT22;12311;50.866;4.332;2022-11-14T17:13:46;7.50;99.90
24152;DHT22;12311;50.866;4.332;2022-11-14T17:16:11;7.50;99.90
24152;DHT22;12311;50.866;4.332;2022-11-14T17:18:37;7.60;99.90
24152;DHT22;12311;50.866;4.332;2022-11-14T17:21:07;7.60;99.90
24152;DHT22;12311;50.866;4.332;2022-11-14T17:23:33;7.60;99.90
24152;DHT22;12311;50.866;4.332;2022-11-14T17:26:07;7.60;99.90
24152;DHT22;12311;50.866;4.332;2022-11-14T17:28:33;7.60;99.90
24152;DHT22;12311;50.866;4.332;2022-11-14T17:31:04;7.70;99.90
24152;DHT22;12311;50.866;4.332;2022-11-14T17:33:30;7.70;99.90
24152;DHT22;12311;50.866;4.332;2022-11-14T17:35:55;7.70;99.90
24152;DHT22;12311;50.866;4.332;2022-11-14T17:38:21;7.70;99.90
24152;DHT22;12311;50.866;4.332;2022-11-14T17:40:47;7.70;99.90